sensor_id;sensor_type;location;lat;lon;timestamp;P1;durP1;ratioP1;P2;durP2;ratioP2
50267;SDS011;36153;50.960;6.220;2023-01-28T00:02:14;10.48;;;4.28;;
50267;SDS011;36153;50.960;6.220;2023-01-28T00:05:16;12.30;;;4.32;;
50267;SDS011;36153;50.960;6.220;2023-01-28T00:08:18;11.80;;;4.72;;
50267;SDS011;36153;50.960;6.220;2023-01-28T00:11:21;7.57;;;4.22;;
50267;SDS011;36153;50.960;6.220;2023-01-28T00:14:23;9.50;;;4.80;;
50267;SDS011;36153;50.960;6.220;2023-01-28T00:17:25;10.73;;;5.13;;
50267;SDS011;36153;50.960;6.220;2023-01-28T00:20:27;8.00;;;4.47;;
50267;SDS011;36153;50.960;6.220;2023-01-28T00:23:30;9.40;;;5.00;;
50267;SDS011;36153;50.960;6.220;2023-01-28T00:26:33;9.98;;;5.05;;
50267;SDS011;36153;50.960;6.220;2023-01-28T00:29:36;10.05;;;4.93;;
50267;SDS011;36153;50.960;6.220;2023-01-28T00:32:38;10.80;;;5.65;;
50267;SDS011;36153;50.960;6.220;2023-01-28T00:35:40;10.65;;;5.20;;
50267;SDS011;36153;50.960;6.220;2023-01-28T00:38:42;15.15;;;5.40;;
50267;SDS011;36153;50.960;6.220;2023-01-28T00:41:48;9.50;;;4.90;;
50267;SDS011;36153;50.960;6.220;2023-01-28T00:44:50;9.65;;;4.75;;
50267;SDS011;36153;50.960;6.220;2023-01-28T00:47:51;12.82;;;5.90;;
50267;SDS011;36153;50.960;6.220;2023-01-28T00:50:53;10.30;;;5.15;;
50267;SDS011;36153;50.960;6.220;2023-01-28T00:53:54;12.05;;;5.55;;
50267;SDS011;36153;50.960;6.220;2023-01-28T00:56:55;9.30;;;4.95;;
50267;SDS011;36153;50.960;6.220;2023-01-28T00:59:56;12.13;;;4.85;;
50267;SDS011;36153;50.960;6.220;2023-01-28T01:02:59;11.52;;;5.45;;
50267;SDS011;36153;50.960;6.220;2023-01-28T01:06:01;11.65;;;5.75;;
50267;SDS011;36153;50.960;6.220;2023-01-28T01:09:03;12.93;;;5.72;;
50267;SDS011;36153;50.960;6.220;2023-01-28T01:12:06;12.23;;;5.20;;
50267;SDS011;36153;50.960;6.220;2023-01-28T01:15:08;13.10;;;5.45;;
50267;SDS011;36153;50.960;6.220;2023-01-28T01:18:10;11.95;;;4.97;;
50267;SDS011;36153;50.960;6.220;2023-01-28T01:21:16;11.85;;;5.28;;
50267;SDS011;36153;50.960;6.220;2023-01-28T01:24:20;12.30;;;5.95;;
50267;SDS011;36153;50.960;6.220;2023-01-28T01:27:21;12.60;;;5.03;;
50267;SDS011;36153;50.960;6.220;2023-01-28T01:30:24;12.85;;;5.45;;
50267;SDS011;36153;50.960;6.220;2023-01-28T01:33:27;12.73;;;5.70;;
50267;SDS011;36153;50.960;6.220;2023-01-28T01:36:31;13.35;;;6.13;;
50267;SDS011;36153;50.960;6.220;2023-01-28T01:39:33;11.27;;;5.55;;
50267;SDS011;36153;50.960;6.220;2023-01-28T01:42:34;12.90;;;6.10;;
50267;SDS011;36153;50.960;6.220;2023-01-28T01:45:36;16.83;;;6.22;;
50267;SDS011;36153;50.960;6.220;2023-01-28T01:48:37;13.95;;;5.93;;
50267;SDS011;36153;50.960;6.220;2023-01-28T01:51:38;13.85;;;6.82;;
50267;SDS011;36153;50.960;6.220;2023-01-28T01:54:40;16.25;;;5.95;;
50267;SDS011;36153;50.960;6.220;2023-01-28T01:57:46;13.13;;;6.50;;
50267;SDS011;36153;50.960;6.220;2023-01-28T02:00:51;14.50;;;6.40;;
50267;SDS011;36153;50.960;6.220;2023-01-28T02:03:54;16.08;;;6.20;;
50267;SDS011;36153;50.960;6.220;2023-01-28T02:07:01;14.85;;;6.00;;
50267;SDS011;36153;50.960;6.220;2023-01-28T02:10:03;13.75;;;6.28;;
50267;SDS011;36153;50.960;6.220;2023-01-28T02:13:06;15.50;;;6.28;;
50267;SDS011;36153;50.960;6.220;2023-01-28T02:16:07;14.95;;;5.93;;
50267;SDS011;36153;50.960;6.220;2023-01-28T02:19:08;16.77;;;6.50;;
50267;SDS011;36153;50.960;6.220;2023-01-28T02:22:25;14.02;;;6.80;;
50267;SDS011;36153;50.960;6.220;2023-01-28T02:29:05;16.38;;;6.78;;
50267;SDS011;36153;50.960;6.220;2023-01-28T02:32:36;13.50;;;6.82;;
50267;SDS011;36153;50.960;6.220;2023-01-28T02:35:47;16.90;;;6.57;;
50267;SDS011;36153;50.960;6.220;2023-01-28T02:41:58;15.75;;;6.50;;
50267;SDS011;36153;50.960;6.220;2023-01-28T02:48:21;14.15;;;6.40;;
50267;SDS011;36153;50.960;6.220;2023-01-28T02:51:34;14.50;;;6.32;;
50267;SDS011;36153;50.960;6.220;2023-01-28T02:54:44;13.90;;;6.72;;
50267;SDS011;36153;50.960;6.220;2023-01-28T03:01:06;20.45;;;7.63;;
50267;SDS011;36153;50.960;6.220;2023-01-28T03:07:28;18.67;;;7.70;;
50267;SDS011;36153;50.960;6.220;2023-01-28T03:10:33;18.95;;;7.18;;
50267;SDS011;36153;50.960;6.220;2023-01-28T03:13:34;17.50;;;7.82;;
50267;SDS011;36153;50.960;6.220;2023-01-28T03:16:56;21.00;;;7.30;;
50267;SDS011;36153;50.960;6.220;2023-01-28T03:20:19;15.73;;;8.07;;
50267;SDS011;36153;50.960;6.220;2023-01-28T03:23:59;18.33;;;8.45;;
50267;SDS011;36153;50.960;6.220;2023-01-28T03:31:04;19.63;;;9.40;;
50267;SDS011;36153;50.960;6.220;2023-01-28T03:34:26;21.23;;;9.90;;
50267;SDS011;36153;50.960;6.220;2023-01-28T03:37:46;21.15;;;10.27;;
50267;SDS011;36153;50.960;6.220;2023-01-28T03:44:09;20.65;;;8.77;;
50267;SDS011;36153;50.960;6.220;2023-01-28T03:47:29;25.73;;;10.35;;
50267;SDS011;36153;50.960;6.220;2023-01-28T03:50:30;23.45;;;10.75;;
50267;SDS011;36153;50.960;6.220;2023-01-28T03:53:31;27.05;;;11.23;;
50267;SDS011;36153;50.960;6.220;2023-01-28T03:56:32;19.83;;;9.82;;
50267;SDS011;36153;50.960;6.220;2023-01-28T03:59:36;22.70;;;10.70;;
50267;SDS011;36153;50.960;6.220;2023-01-28T04:02:38;24.90;;;9.90;;
50267;SDS011;36153;50.960;6.220;2023-01-28T04:05:39;18.83;;;9.25;;
50267;SDS011;36153;50.960;6.220;2023-01-28T04:08:42;17.58;;;8.40;;
50267;SDS011;36153;50.960;6.220;2023-01-28T04:11:52;16.48;;;7.85;;
50267;SDS011;36153;50.960;6.220;2023-01-28T04:14:53;15.30;;;7.75;;
50267;SDS011;36153;50.960;6.220;2023-01-28T04:17:55;16.02;;;7.60;;
50267;SDS011;36153;50.960;6.220;2023-01-28T04:20:56;15.20;;;7.80;;
50267;SDS011;36153;50.960;6.220;2023-01-28T04:23:57;17.17;;;7.78;;
50267;SDS011;36153;50.960;6.220;2023-01-28T04:26:58;11.48;;;6.50;;
50267;SDS011;36153;50.960;6.220;2023-01-28T04:29:59;17.30;;;8.23;;
50267;SDS011;36153;50.960;6.220;2023-01-28T04:33:00;15.43;;;8.02;;
50267;SDS011;36153;50.960;6.220;2023-01-28T04:36:01;15.88;;;7.25;;
50267;SDS011;36153;50.960;6.220;2023-01-28T04:39:02;15.07;;;7.82;;
50267;SDS011;36153;50.960;6.220;2023-01-28T04:42:03;21.80;;;7.78;;
50267;SDS011;36153;50.960;6.220;2023-01-28T04:45:04;15.63;;;8.00;;
50267;SDS011;36153;50.960;6.220;2023-01-28T04:48:05;19.38;;;7.63;;
50267;SDS011;36153;50.960;6.220;2023-01-28T04:51:07;14.90;;;7.85;;
50267;SDS011;36153;50.960;6.220;2023-01-28T04:54:08;16.05;;;7.88;;
50267;SDS011;36153;50.960;6.220;2023-01-28T04:57:10;16.23;;;7.25;;
50267;SDS011;36153;50.960;6.220;2023-01-28T05:00:11;16.83;;;7.68;;
50267;SDS011;36153;50.960;6.220;2023-01-28T05:03:11;15.38;;;7.55;;
50267;SDS011;36153;50.960;6.220;2023-01-28T05:06:12;13.90;;;6.82;;
50267;SDS011;36153;50.960;6.220;2023-01-28T05:09:12;11.85;;;6.57;;
50267;SDS011;36153;50.960;6.220;2023-01-28T05:12:12;14.15;;;6.97;;
50267;SDS011;36153;50.960;6.220;2023-01-28T05:15:16;12.73;;;6.30;;
50267;SDS011;36153;50.960;6.220;2023-01-28T05:18:18;17.40;;;7.25;;
50267;SDS011;36153;50.960;6.220;2023-01-28T05:21:19;13.02;;;6.93;;
50267;SDS011;36153;50.960;6.220;2023-01-28T05:24:19;18.67;;;6.03;;
50267;SDS011;36153;50.960;6.220;2023-01-28T05:27:20;12.88;;;6.30;;
50267;SDS011;36153;50.960;6.220;2023-01-28T05:30:21;13.90;;;6.40;;
50267;SDS011;36153;50.960;6.220;2023-01-28T05:33:21;14.27;;;6.80;;
50267;SDS011;36153;50.960;6.220;2023-01-28T05:36:22;14.85;;;6.88;;
50267;SDS011;36153;50.960;6.220;2023-01-28T05:39:22;14.18;;;6.93;;
50267;SDS011;36153;50.960;6.220;2023-01-28T05:42:23;15.02;;;6.50;;
50267;SDS011;36153;50.960;6.220;2023-01-28T05:45:23;13.27;;;6.30;;
50267;SDS011;36153;50.960;6.220;2023-01-28T05:48:24;14.80;;;6.93;;
50267;SDS011;36153;50.960;6.220;2023-01-28T05:51:24;12.93;;;6.47;;
50267;SDS011;36153;50.960;6.220;2023-01-28T05:54:25;16.85;;;7.15;;
50267;SDS011;36153;50.960;6.220;2023-01-28T05:57:25;14.48;;;6.75;;
50267;SDS011;36153;50.960;6.220;2023-01-28T06:00:26;16.58;;;6.88;;
50267;SDS011;36153;50.960;6.220;2023-01-28T06:03:26;13.48;;;6.45;;
50267;SDS011;36153;50.960;6.220;2023-01-28T06:06:27;16.50;;;7.63;;
50267;SDS011;36153;50.960;6.220;2023-01-28T06:09:27;16.33;;;7.13;;
50267;SDS011;36153;50.960;6.220;2023-01-28T06:12:27;11.40;;;5.47;;
50267;SDS011;36153;50.960;6.220;2023-01-28T06:15:28;15.00;;;6.30;;
50267;SDS011;36153;50.960;6.220;2023-01-28T06:18:28;19.05;;;6.90;;
50267;SDS011;36153;50.960;6.220;2023-01-28T06:21:29;15.73;;;7.20;;
50267;SDS011;36153;50.960;6.220;2023-01-28T06:24:30;19.27;;;6.57;;
50267;SDS011;36153;50.960;6.220;2023-01-28T06:27:30;15.70;;;7.10;;
50267;SDS011;36153;50.960;6.220;2023-01-28T06:30:31;15.38;;;6.80;;
50267;SDS011;36153;50.960;6.220;2023-01-28T06:33:31;15.10;;;6.40;;
50267;SDS011;36153;50.960;6.220;2023-01-28T06:36:31;14.13;;;6.47;;
50267;SDS011;36153;50.960;6.220;2023-01-28T06:39:32;13.25;;;6.10;;
50267;SDS011;36153;50.960;6.220;2023-01-28T06:42:32;11.48;;;5.82;;
50267;SDS011;36153;50.960;6.220;2023-01-28T06:45:33;11.68;;;5.25;;
50267;SDS011;36153;50.960;6.220;2023-01-28T06:48:33;10.68;;;5.15;;
50267;SDS011;36153;50.960;6.220;2023-01-28T06:51:34;15.60;;;7.03;;
50267;SDS011;36153;50.960;6.220;2023-01-28T06:54:34;14.40;;;6.55;;
50267;SDS011;36153;50.960;6.220;2023-01-28T06:57:39;15.25;;;7.55;;
50267;SDS011;36153;50.960;6.220;2023-01-28T07:00:40;15.98;;;6.93;;
50267;SDS011;36153;50.960;6.220;2023-01-28T07:03:41;16.35;;;6.80;;
50267;SDS011;36153;50.960;6.220;2023-01-28T07:06:41;16.25;;;7.82;;
50267;SDS011;36153;50.960;6.220;2023-01-28T07:09:42;15.55;;;6.57;;
50267;SDS011;36153;50.960;6.220;2023-01-28T07:12:42;15.55;;;7.55;;
50267;SDS011;36153;50.960;6.220;2023-01-28T07:15:43;16.00;;;7.38;;
50267;SDS011;36153;50.960;6.220;2023-01-28T07:18:43;16.13;;;7.72;;
50267;SDS011;36153;50.960;6.220;2023-01-28T07:21:44;15.70;;;7.50;;
50267;SDS011;36153;50.960;6.220;2023-01-28T07:24:45;17.80;;;8.07;;
50267;SDS011;36153;50.960;6.220;2023-01-28T07:27:49;18.00;;;8.40;;
50267;SDS011;36153;50.960;6.220;2023-01-28T07:30:51;13.55;;;6.88;;
50267;SDS011;36153;50.960;6.220;2023-01-28T07:33:51;13.50;;;7.63;;
50267;SDS011;36153;50.960;6.220;2023-01-28T07:36:52;13.82;;;7.60;;
50267;SDS011;36153;50.960;6.220;2023-01-28T07:39:52;15.00;;;7.03;;
50267;SDS011;36153;50.960;6.220;2023-01-28T07:42:53;17.92;;;7.57;;
50267;SDS011;36153;50.960;6.220;2023-01-28T07:45:54;14.18;;;7.53;;
50267;SDS011;36153;50.960;6.220;2023-01-28T07:48:54;14.20;;;7.32;;
50267;SDS011;36153;50.960;6.220;2023-01-28T07:51:55;17.42;;;7.78;;
50267;SDS011;36153;50.960;6.220;2023-01-28T07:54:55;18.05;;;7.68;;
50267;SDS011;36153;50.960;6.220;2023-01-28T07:57:59;20.10;;;8.85;;
50267;SDS011;36153;50.960;6.220;2023-01-28T08:01:00;20.05;;;8.27;;
50267;SDS011;36153;50.960;6.220;2023-01-28T08:04:01;15.80;;;7.57;;
50267;SDS011;36153;50.960;6.220;2023-01-28T08:07:01;16.48;;;8.35;;
50267;SDS011;36153;50.960;6.220;2023-01-28T08:10:02;18.42;;;9.18;;
50267;SDS011;36153;50.960;6.220;2023-01-28T08:13:02;16.88;;;7.72;;
50267;SDS011;36153;50.960;6.220;2023-01-28T08:16:03;18.75;;;8.38;;
50267;SDS011;36153;50.960;6.220;2023-01-28T08:19:05;15.93;;;8.45;;
50267;SDS011;36153;50.960;6.220;2023-01-28T08:22:05;19.45;;;9.88;;
50267;SDS011;36153;50.960;6.220;2023-01-28T08:25:06;17.30;;;8.57;;
50267;SDS011;36153;50.960;6.220;2023-01-28T08:28:06;21.55;;;8.75;;
50267;SDS011;36153;50.960;6.220;2023-01-28T08:31:07;18.02;;;8.40;;
50267;SDS011;36153;50.960;6.220;2023-01-28T08:34:08;16.77;;;7.88;;
50267;SDS011;36153;50.960;6.220;2023-01-28T08:37:08;21.40;;;9.13;;
50267;SDS011;36153;50.960;6.220;2023-01-28T08:40:09;20.55;;;9.75;;
50267;SDS011;36153;50.960;6.220;2023-01-28T08:43:10;18.13;;;8.75;;
50267;SDS011;36153;50.960;6.220;2023-01-28T08:46:14;15.75;;;7.60;;
50267;SDS011;36153;50.960;6.220;2023-01-28T08:49:22;22.20;;;8.73;;
50267;SDS011;36153;50.960;6.220;2023-01-28T08:52:27;17.65;;;8.43;;
50267;SDS011;36153;50.960;6.220;2023-01-28T08:55:28;13.65;;;7.30;;
50267;SDS011;36153;50.960;6.220;2023-01-28T08:58:29;17.02;;;8.00;;
50267;SDS011;36153;50.960;6.220;2023-01-28T09:01:29;15.50;;;7.57;;
50267;SDS011;36153;50.960;6.220;2023-01-28T09:04:30;17.23;;;8.75;;
50267;SDS011;36153;50.960;6.220;2023-01-28T09:07:30;15.73;;;8.10;;
50267;SDS011;36153;50.960;6.220;2023-01-28T09:10:33;19.70;;;9.32;;
50267;SDS011;36153;50.960;6.220;2023-01-28T09:13:33;19.27;;;8.13;;
50267;SDS011;36153;50.960;6.220;2023-01-28T09:16:34;19.77;;;8.82;;
50267;SDS011;36153;50.960;6.220;2023-01-28T09:19:34;20.63;;;9.38;;
50267;SDS011;36153;50.960;6.220;2023-01-28T09:22:35;19.23;;;9.10;;
50267;SDS011;36153;50.960;6.220;2023-01-28T09:25:35;17.50;;;8.73;;
50267;SDS011;36153;50.960;6.220;2023-01-28T09:28:36;21.98;;;8.82;;
50267;SDS011;36153;50.960;6.220;2023-01-28T09:31:37;19.77;;;8.45;;
50267;SDS011;36153;50.960;6.220;2023-01-28T09:34:38;22.88;;;8.68;;
50267;SDS011;36153;50.960;6.220;2023-01-28T09:37:39;20.23;;;8.40;;
50267;SDS011;36153;50.960;6.220;2023-01-28T09:40:40;18.35;;;7.85;;
50267;SDS011;36153;50.960;6.220;2023-01-28T09:43:52;17.85;;;7.95;;
50267;SDS011;36153;50.960;6.220;2023-01-28T09:47:06;18.95;;;8.35;;
50267;SDS011;36153;50.960;6.220;2023-01-28T09:50:14;18.50;;;8.32;;
50267;SDS011;36153;50.960;6.220;2023-01-28T09:53:32;17.42;;;9.02;;
50267;SDS011;36153;50.960;6.220;2023-01-28T09:56:42;23.90;;;8.27;;
50267;SDS011;36153;50.960;6.220;2023-01-28T09:59:46;23.00;;;9.43;;
50267;SDS011;36153;50.960;6.220;2023-01-28T10:09:32;21.02;;;9.18;;
50267;SDS011;36153;50.960;6.220;2023-01-28T10:12:59;20.98;;;9.05;;
50267;SDS011;36153;50.960;6.220;2023-01-28T10:16:13;19.00;;;8.13;;
50267;SDS011;36153;50.960;6.220;2023-01-28T10:19:53;25.20;;;10.95;;
50267;SDS011;36153;50.960;6.220;2023-01-28T10:26:35;19.60;;;7.97;;
50267;SDS011;36153;50.960;6.220;2023-01-28T10:29:38;25.33;;;9.27;;
50267;SDS011;36153;50.960;6.220;2023-01-28T10:32:45;22.27;;;9.60;;
50267;SDS011;36153;50.960;6.220;2023-01-28T10:38:52;24.67;;;9.50;;
50267;SDS011;36153;50.960;6.220;2023-01-28T10:41:53;22.77;;;9.32;;
50267;SDS011;36153;50.960;6.220;2023-01-28T10:45:00;24.90;;;9.48;;
50267;SDS011;36153;50.960;6.220;2023-01-28T10:48:23;21.27;;;8.75;;
50267;SDS011;36153;50.960;6.220;2023-01-28T10:51:38;25.77;;;10.48;;
50267;SDS011;36153;50.960;6.220;2023-01-28T10:54:40;25.95;;;10.18;;
50267;SDS011;36153;50.960;6.220;2023-01-28T10:57:41;27.17;;;10.80;;
50267;SDS011;36153;50.960;6.220;2023-01-28T11:00:42;28.45;;;10.45;;
50267;SDS011;36153;50.960;6.220;2023-01-28T11:03:50;30.17;;;10.63;;
50267;SDS011;36153;50.960;6.220;2023-01-28T11:06:55;26.00;;;9.98;;
50267;SDS011;36153;50.960;6.220;2023-01-28T11:09:57;28.05;;;11.13;;
50267;SDS011;36153;50.960;6.220;2023-01-28T11:12:59;25.65;;;10.20;;
50267;SDS011;36153;50.960;6.220;2023-01-28T11:16:01;27.67;;;10.35;;
50267;SDS011;36153;50.960;6.220;2023-01-28T11:19:12;22.88;;;8.90;;
50267;SDS011;36153;50.960;6.220;2023-01-28T11:22:18;23.42;;;9.35;;
50267;SDS011;36153;50.960;6.220;2023-01-28T11:25:30;20.70;;;9.45;;
50267;SDS011;36153;50.960;6.220;2023-01-28T11:28:38;23.48;;;9.48;;
50267;SDS011;36153;50.960;6.220;2023-01-28T11:31:41;21.02;;;9.07;;
50267;SDS011;36153;50.960;6.220;2023-01-28T11:34:47;21.10;;;8.65;;
50267;SDS011;36153;50.960;6.220;2023-01-28T11:37:50;26.40;;;9.52;;
50267;SDS011;36153;50.960;6.220;2023-01-28T11:40:51;20.25;;;8.15;;
50267;SDS011;36153;50.960;6.220;2023-01-28T11:43:53;23.25;;;9.63;;
50267;SDS011;36153;50.960;6.220;2023-01-28T11:56:56;21.85;;;8.70;;
50267;SDS011;36153;50.960;6.220;2023-01-28T12:03:29;19.80;;;8.57;;
50267;SDS011;36153;50.960;6.220;2023-01-28T12:06:59;21.08;;;9.00;;
50267;SDS011;36153;50.960;6.220;2023-01-28T12:24:47;22.27;;;8.35;;
50267;SDS011;36153;50.960;6.220;2023-01-28T12:46:05;18.52;;;7.38;;
50267;SDS011;36153;50.960;6.220;2023-01-28T12:49:49;21.80;;;8.25;;
50267;SDS011;36153;50.960;6.220;2023-01-28T12:52:56;18.33;;;8.18;;
50267;SDS011;36153;50.960;6.220;2023-01-28T12:56:14;20.13;;;8.25;;
50267;SDS011;36153;50.960;6.220;2023-01-28T12:59:20;20.98;;;8.85;;
50267;SDS011;36153;50.960;6.220;2023-01-28T13:02:32;21.55;;;9.32;;
50267;SDS011;36153;50.960;6.220;2023-01-28T13:05:49;19.05;;;8.18;;
50267;SDS011;36153;50.960;6.220;2023-01-28T13:08:55;19.63;;;8.32;;
50267;SDS011;36153;50.960;6.220;2023-01-28T13:11:59;21.25;;;8.80;;
50267;SDS011;36153;50.960;6.220;2023-01-28T13:15:02;23.80;;;8.82;;
50267;SDS011;36153;50.960;6.220;2023-01-28T13:18:03;20.98;;;9.25;;
50267;SDS011;36153;50.960;6.220;2023-01-28T13:21:05;22.23;;;9.50;;
50267;SDS011;36153;50.960;6.220;2023-01-28T13:27:12;21.92;;;10.27;;
50267;SDS011;36153;50.960;6.220;2023-01-28T13:30:22;25.88;;;11.18;;
50267;SDS011;36153;50.960;6.220;2023-01-28T13:33:27;23.08;;;10.35;;
50267;SDS011;36153;50.960;6.220;2023-01-28T13:36:30;24.73;;;10.75;;
50267;SDS011;36153;50.960;6.220;2023-01-28T13:39:47;26.77;;;10.63;;
50267;SDS011;36153;50.960;6.220;2023-01-28T13:43:04;27.70;;;11.00;;
50267;SDS011;36153;50.960;6.220;2023-01-28T13:46:13;27.38;;;11.40;;
50267;SDS011;36153;50.960;6.220;2023-01-28T13:49:36;29.73;;;12.13;;
50267;SDS011;36153;50.960;6.220;2023-01-28T13:55:46;29.77;;;12.48;;
50267;SDS011;36153;50.960;6.220;2023-01-28T13:59:00;25.88;;;10.95;;
50267;SDS011;36153;50.960;6.220;2023-01-28T14:02:19;29.17;;;11.05;;
50267;SDS011;36153;50.960;6.220;2023-01-28T14:08:44;26.05;;;11.30;;
50267;SDS011;36153;50.960;6.220;2023-01-28T14:21:55;22.90;;;9.38;;
50267;SDS011;36153;50.960;6.220;2023-01-28T14:24:57;22.08;;;9.48;;
50267;SDS011;36153;50.960;6.220;2023-01-28T14:27:59;23.02;;;10.23;;
50267;SDS011;36153;50.960;6.220;2023-01-28T14:34:23;23.83;;;10.07;;
50267;SDS011;36153;50.960;6.220;2023-01-28T14:37:30;22.25;;;10.30;;
50267;SDS011;36153;50.960;6.220;2023-01-28T14:40:32;24.17;;;10.63;;
50267;SDS011;36153;50.960;6.220;2023-01-28T14:43:36;29.85;;;11.43;;
50267;SDS011;36153;50.960;6.220;2023-01-28T14:46:41;26.85;;;10.63;;
50267;SDS011;36153;50.960;6.220;2023-01-28T15:03:23;27.05;;;10.30;;
50267;SDS011;36153;50.960;6.220;2023-01-28T15:06:29;26.77;;;11.07;;
50267;SDS011;36153;50.960;6.220;2023-01-28T15:09:33;24.55;;;9.88;;
50267;SDS011;36153;50.960;6.220;2023-01-28T15:12:34;27.45;;;10.23;;
50267;SDS011;36153;50.960;6.220;2023-01-28T15:15:39;25.23;;;10.82;;
50267;SDS011;36153;50.960;6.220;2023-01-28T15:18:41;27.60;;;12.05;;
50267;SDS011;36153;50.960;6.220;2023-01-28T15:21:42;26.42;;;13.65;;
50267;SDS011;36153;50.960;6.220;2023-01-28T15:24:44;26.35;;;12.35;;
50267;SDS011;36153;50.960;6.220;2023-01-28T15:27:45;30.20;;;12.52;;
50267;SDS011;36153;50.960;6.220;2023-01-28T15:30:46;30.42;;;13.10;;
50267;SDS011;36153;50.960;6.220;2023-01-28T15:37:00;28.20;;;12.80;;
50267;SDS011;36153;50.960;6.220;2023-01-28T15:40:04;31.92;;;14.77;;
50267;SDS011;36153;50.960;6.220;2023-01-28T15:43:11;42.30;;;16.60;;
50267;SDS011;36153;50.960;6.220;2023-01-28T15:46:17;35.08;;;13.73;;
50267;SDS011;36153;50.960;6.220;2023-01-28T15:49:18;30.42;;;11.95;;
50267;SDS011;36153;50.960;6.220;2023-01-28T15:52:19;26.80;;;11.52;;
50267;SDS011;36153;50.960;6.220;2023-01-28T15:55:27;24.45;;;10.57;;
50267;SDS011;36153;50.960;6.220;2023-01-28T15:58:32;25.33;;;11.13;;
50267;SDS011;36153;50.960;6.220;2023-01-28T16:01:36;24.23;;;11.20;;
50267;SDS011;36153;50.960;6.220;2023-01-28T16:04:36;32.67;;;13.35;;
50267;SDS011;36153;50.960;6.220;2023-01-28T16:07:43;39.55;;;17.08;;
50267;SDS011;36153;50.960;6.220;2023-01-28T16:10:50;28.02;;;10.80;;
50267;SDS011;36153;50.960;6.220;2023-01-28T16:13:53;24.63;;;10.85;;
50267;SDS011;36153;50.960;6.220;2023-01-28T16:16:54;27.90;;;10.85;;
50267;SDS011;36153;50.960;6.220;2023-01-28T16:19:57;23.50;;;9.48;;
50267;SDS011;36153;50.960;6.220;2023-01-28T16:23:04;21.45;;;8.40;;
50267;SDS011;36153;50.960;6.220;2023-01-28T16:26:27;19.65;;;8.00;;
50267;SDS011;36153;50.960;6.220;2023-01-28T16:29:28;19.42;;;8.70;;
50267;SDS011;36153;50.960;6.220;2023-01-28T16:35:32;23.77;;;8.98;;
50267;SDS011;36153;50.960;6.220;2023-01-28T16:38:33;20.05;;;8.45;;
50267;SDS011;36153;50.960;6.220;2023-01-28T16:41:34;19.17;;;8.02;;
50267;SDS011;36153;50.960;6.220;2023-01-28T16:44:38;19.77;;;7.88;;
50267;SDS011;36153;50.960;6.220;2023-01-28T16:47:39;21.73;;;8.73;;
50267;SDS011;36153;50.960;6.220;2023-01-28T16:50:40;26.27;;;10.63;;
50267;SDS011;36153;50.960;6.220;2023-01-28T16:53:41;20.95;;;8.93;;
50267;SDS011;36153;50.960;6.220;2023-01-28T16:56:43;21.58;;;8.10;;
50267;SDS011;36153;50.960;6.220;2023-01-28T16:59:44;23.02;;;9.25;;
50267;SDS011;36153;50.960;6.220;2023-01-28T17:02:44;21.25;;;8.45;;
50267;SDS011;36153;50.960;6.220;2023-01-28T17:05:45;25.02;;;8.82;;
50267;SDS011;36153;50.960;6.220;2023-01-28T17:08:46;25.02;;;9.43;;
50267;SDS011;36153;50.960;6.220;2023-01-28T17:11:47;22.77;;;8.98;;
50267;SDS011;36153;50.960;6.220;2023-01-28T17:14:47;19.52;;;8.48;;
50267;SDS011;36153;50.960;6.220;2023-01-28T17:17:47;19.30;;;8.52;;
50267;SDS011;36153;50.960;6.220;2023-01-28T17:20:49;22.73;;;8.60;;
50267;SDS011;36153;50.960;6.220;2023-01-28T17:23:49;23.38;;;8.75;;
50267;SDS011;36153;50.960;6.220;2023-01-28T17:26:51;17.63;;;7.32;;
50267;SDS011;36153;50.960;6.220;2023-01-28T17:29:52;24.38;;;9.38;;
50267;SDS011;36153;50.960;6.220;2023-01-28T17:32:52;21.70;;;8.77;;
50267;SDS011;36153;50.960;6.220;2023-01-28T17:35:53;24.30;;;9.55;;
50267;SDS011;36153;50.960;6.220;2023-01-28T17:38:53;29.30;;;10.50;;
50267;SDS011;36153;50.960;6.220;2023-01-28T17:41:54;25.75;;;10.02;;
50267;SDS011;36153;50.960;6.220;2023-01-28T17:44:55;26.80;;;10.02;;
50267;SDS011;36153;50.960;6.220;2023-01-28T17:47:56;21.02;;;8.60;;
50267;SDS011;36153;50.960;6.220;2023-01-28T17:50:56;24.70;;;8.70;;
50267;SDS011;36153;50.960;6.220;2023-01-28T17:53:57;23.52;;;9.38;;
50267;SDS011;36153;50.960;6.220;2023-01-28T17:56:58;20.85;;;8.18;;
50267;SDS011;36153;50.960;6.220;2023-01-28T17:59:58;23.45;;;7.65;;
50267;SDS011;36153;50.960;6.220;2023-01-28T18:02:58;22.85;;;8.75;;
50267;SDS011;36153;50.960;6.220;2023-01-28T18:05:59;21.52;;;7.75;;
50267;SDS011;36153;50.960;6.220;2023-01-28T18:08:59;20.48;;;8.82;;
50267;SDS011;36153;50.960;6.220;2023-01-28T18:12:00;22.85;;;8.57;;
50267;SDS011;36153;50.960;6.220;2023-01-28T18:15:00;24.30;;;8.90;;
50267;SDS011;36153;50.960;6.220;2023-01-28T18:18:00;24.00;;;9.57;;
50267;SDS011;36153;50.960;6.220;2023-01-28T18:21:02;26.45;;;9.68;;
50267;SDS011;36153;50.960;6.220;2023-01-28T18:24:04;31.58;;;14.38;;
50267;SDS011;36153;50.960;6.220;2023-01-28T18:27:04;30.85;;;14.50;;
50267;SDS011;36153;50.960;6.220;2023-01-28T18:30:05;30.13;;;13.10;;
50267;SDS011;36153;50.960;6.220;2023-01-28T18:33:06;27.15;;;11.85;;
50267;SDS011;36153;50.960;6.220;2023-01-28T18:36:07;29.02;;;11.68;;
50267;SDS011;36153;50.960;6.220;2023-01-28T18:39:11;34.67;;;12.57;;
50267;SDS011;36153;50.960;6.220;2023-01-28T18:42:13;24.95;;;10.70;;
50267;SDS011;36153;50.960;6.220;2023-01-28T18:45:14;28.10;;;10.95;;
50267;SDS011;36153;50.960;6.220;2023-01-28T18:48:15;27.25;;;11.77;;
50267;SDS011;36153;50.960;6.220;2023-01-28T18:51:16;25.25;;;10.23;;
50267;SDS011;36153;50.960;6.220;2023-01-28T18:54:16;24.20;;;9.90;;
50267;SDS011;36153;50.960;6.220;2023-01-28T18:57:19;24.88;;;9.60;;
50267;SDS011;36153;50.960;6.220;2023-01-28T19:00:19;26.33;;;9.20;;
50267;SDS011;36153;50.960;6.220;2023-01-28T19:03:20;26.02;;;9.75;;
50267;SDS011;36153;50.960;6.220;2023-01-28T19:06:20;24.77;;;9.68;;
50267;SDS011;36153;50.960;6.220;2023-01-28T19:09:21;24.92;;;10.15;;
50267;SDS011;36153;50.960;6.220;2023-01-28T19:12:21;26.38;;;9.85;;
50267;SDS011;36153;50.960;6.220;2023-01-28T19:15:22;24.83;;;8.85;;
50267;SDS011;36153;50.960;6.220;2023-01-28T19:18:22;25.00;;;9.75;;
50267;SDS011;36153;50.960;6.220;2023-01-28T19:21:23;25.70;;;9.90;;
50267;SDS011;36153;50.960;6.220;2023-01-28T19:24:24;24.30;;;9.27;;
50267;SDS011;36153;50.960;6.220;2023-01-28T19:27:25;25.38;;;9.95;;
50267;SDS011;36153;50.960;6.220;2023-01-28T19:30:25;26.33;;;10.27;;
50267;SDS011;36153;50.960;6.220;2023-01-28T19:33:25;25.35;;;10.90;;
50267;SDS011;36153;50.960;6.220;2023-01-28T19:36:27;25.33;;;10.15;;
50267;SDS011;36153;50.960;6.220;2023-01-28T19:39:28;24.90;;;9.15;;
50267;SDS011;36153;50.960;6.220;2023-01-28T19:42:30;27.45;;;10.07;;
50267;SDS011;36153;50.960;6.220;2023-01-28T19:45:30;28.48;;;10.18;;
50267;SDS011;36153;50.960;6.220;2023-01-28T19:48:31;27.80;;;10.55;;
50267;SDS011;36153;50.960;6.220;2023-01-28T19:51:32;24.23;;;9.40;;
50267;SDS011;36153;50.960;6.220;2023-01-28T19:54:33;33.03;;;9.95;;
50267;SDS011;36153;50.960;6.220;2023-01-28T19:57:34;26.95;;;11.55;;
50267;SDS011;36153;50.960;6.220;2023-01-28T20:00:34;24.58;;;10.52;;
50267;SDS011;36153;50.960;6.220;2023-01-28T20:03:35;35.15;;;11.80;;
50267;SDS011;36153;50.960;6.220;2023-01-28T20:06:36;32.15;;;12.95;;
50267;SDS011;36153;50.960;6.220;2023-01-28T20:09:36;38.17;;;12.38;;
50267;SDS011;36153;50.960;6.220;2023-01-28T20:12:37;29.23;;;12.13;;